Time;durP1;ratioP1;P1;durP2;ratioP2;P2;SDS_P1;SDS_P2;PMS_P1;PMS_P2;Temp;Humidity;BMP_temperature;BMP_pressure;BME280_temperature;BME280_humidity;BME280_pressure;Samples;Min_cycle;Max_cycle;Signal;HPM_P1;HPM_P2
2021/12/20 00:01:38;;;;;;;;;22.00;19.00;;;;;13.81;87.04;102249.06;5029540;28;45265;-86
2021/12/20 00:04:08;;;;;;;;;31.25;17.50;;;;;13.86;87.25;102258.47;5043583;28;45211;-86
2021/12/20 00:06:36;;;;;;;;;28.00;21.00;;;;;13.89;87.71;102256.59;5044287;28;45411;-84
2021/12/20 00:09:07;;;;;;;;;26.50;22.75;;;;;13.85;87.66;102245.28;5025992;28;45735;-85
2021/12/20 00:11:42;;;;;;;;;31.50;23.50;;;;;13.65;87.64;102249.09;5042645;28;45404;-85
2021/12/20 00:14:08;;;;;;;;;26.50;16.75;;;;;13.77;87.92;102247.53;5042552;28;45467;-85
2021/12/20 00:16:36;;;;;;;;;32.00;26.25;;;;;13.90;87.70;102242.38;5043815;28;45368;-85
2021/12/20 00:19:02;;;;;;;;;34.00;24.50;;;;;13.92;87.57;102240.50;5041620;28;45205;-85
2021/12/20 00:21:31;;;;;;;;;33.25;22.00;;;;;13.92;87.74;102240.50;5041338;28;45270;-86
2021/12/20 00:23:56;;;;;;;;;22.00;19.25;;;;;13.95;87.62;102243.81;5031927;28;45728;-85
2021/12/20 00:26:24;;;;;;;;;23.25;18.00;;;;;13.93;87.59;102247.53;5039459;28;46952;-85
2021/12/20 00:28:49;;;;;;;;;26.50;16.75;;;;;13.86;87.63;102236.38;5057099;28;45400;-85
2021/12/20 00:31:17;;;;;;;;;26.75;22.25;;;;;13.87;87.68;102240.75;5046967;28;44709;-85
2021/12/20 00:33:43;;;;;;;;;29.75;20.25;;;;;13.80;87.86;102223.47;5040866;27;45643;-85
2021/12/20 00:36:20;;;;;;;;;;;;;;;;;;;;;
2021/12/20 00:41:34;;;;;;;;;36.25;22.00;;;;;13.84;87.61;102228.50;5043021;28;45421;-85
2021/12/20 00:43:59;;;;;;;;;35.75;22.50;;;;;14.01;87.72;102243.47;5040196;28;45297;-85
2021/12/20 00:46:27;;;;;;;;;30.25;22.00;;;;;13.96;87.57;102226.09;5039534;28;46596;-85
2021/12/20 00:48:52;;;;;;;;;24.50;21.00;;;;;13.88;87.89;102229.19;5039179;28;45231;-86
2021/12/20 00:51:26;;;;;;;;;28.00;22.50;;;;;13.92;87.66;102230.72;5023226;28;45366;-86
2021/12/20 00:53:51;;;;;;;;;24.50;19.50;;;;;13.86;87.59;102228.41;5031124;28;45342;-85
2021/12/20 00:56:19;;;;;;;;;29.75;22.25;;;;;13.94;87.60;102222.66;5038390;28;46407;-84
2021/12/20 00:58:47;;;;;;;;;31.25;22.50;;;;;14.11;87.78;102230.53;5038595;28;45189;-85
2021/12/20 01:01:15;;;;;;;;;27.25;16.75;;;;;14.07;87.53;102227.19;5040515;28;45373;-84
2021/12/20 01:03:41;;;;;;;;;29.75;20.50;;;;;14.07;87.71;102228.97;5038758;28;45525;-84
2021/12/20 01:06:09;;;;;;;;;28.50;20.00;;;;;14.09;87.15;102227.09;5045335;28;46344;-85
2021/12/20 01:08:37;;;;;;;;;27.25;19.00;;;;;14.02;87.23;102212.47;5026606;28;45713;-85
2021/12/20 01:11:04;;;;;;;;;27.25;21.50;;;;;14.01;87.22;102211.59;5027087;28;45417;-85
2021/12/20 01:13:31;;;;;;;;;27.00;18.00;;;;;13.89;87.21;102214.97;5025795;28;45772;-85
2021/12/20 01:16:00;;;;;;;;;26.75;18.25;;;;;13.93;87.00;102215.66;5042569;28;45312;-85
2021/12/20 01:18:33;;;;;;;;;25.75;21.00;;;;;13.91;87.00;102210.44;5024546;28;45685;-85
2021/12/20 01:21:01;;;;;;;;;26.00;22.00;;;;;13.86;87.09;102205.38;5042435;28;45300;-85
2021/12/20 01:23:26;;;;;;;;;28.75;18.00;;;;;13.94;87.17;102199.59;5042637;28;45305;-86
2021/12/20 01:25:52;;;;;;;;;27.75;18.00;;;;;13.98;87.55;102201.16;5041916;28;45592;-85
2021/12/20 01:28:17;;;;;;;;;29.25;21.50;;;;;14.07;87.31;102202.41;5024231;28;45534;-85
2021/12/20 01:30:43;;;;;;;;;32.50;23.50;;;;;14.07;86.98;102199.75;5042220;28;45406;-86
2021/12/20 01:33:13;;;;;;;;;23.00;20.50;;;;;14.07;86.87;102207.72;5024207;28;45606;-86
2021/12/20 01:35:39;;;;;;;;;32.00;21.75;;;;;14.10;87.32;102216.38;5024060;28;47002;-85
2021/12/20 01:38:20;;;;;;;;;26.00;17.75;;;;;14.14;87.03;102207.25;5042079;28;45619;-86
2021/12/20 01:40:48;;;;;;;;;25.00;16.75;;;;;14.04;86.96;102206.09;5041104;28;45482;-86
2021/12/20 01:43:15;;;;;;;;;35.75;21.75;;;;;13.98;86.42;102198.50;5040661;28;45612;-86
2021/12/20 01:45:40;;;;;;;;;33.75;23.50;;;;;13.90;86.86;102206.06;5020804;28;47334;-85
2021/12/20 01:48:09;;;;;;;;;28.50;19.25;;;;;13.83;86.51;102204.72;5017289;28;45238;-86
2021/12/20 01:53:22;;;;;;;;;30.75;20.75;;;;;13.67;87.04;102198.53;5041993;28;45399;-86
2021/12/20 01:55:52;;;;;;;;;22.50;20.00;;;;;13.63;87.07;102197.88;5023901;28;47305;-86
2021/12/20 01:58:17;;;;;;;;;24.25;19.75;;;;;13.55;86.82;102194.81;5041840;28;45416;-87
2021/12/20 02:03:41;;;;;;;;;29.75;22.50;;;;;13.67;86.83;102201.19;5012574;28;45234;-84
2021/12/20 02:06:14;;;;;;;;;36.25;23.25;;;;;13.61;86.82;102188.28;5044315;28;45411;-85
2021/12/20 02:08:43;;;;;;;;;31.75;25.50;;;;;13.61;86.74;102189.16;5043605;28;45482;-85
2021/12/20 02:11:14;;;;;;;;;28.50;24.50;;;;;13.59;87.00;102187.50;5043728;28;45375;-85
2021/12/20 02:13:40;;;;;;;;;37.50;25.25;;;;;13.59;87.14;102190.16;5042416;28;45781;-84
2021/12/20 02:16:06;;;;;;;;;36.75;25.00;;;;;13.61;86.70;102182.97;5043437;28;46306;-86
2021/12/20 02:18:42;;;;;;;;;44.75;31.50;;;;;13.65;86.90;102184.53;5041560;28;45398;-85
2021/12/20 02:21:08;;;;;;;;;28.50;24.00;;;;;13.71;86.55;102189.47;5041645;28;45248;-86
2021/12/20 02:23:34;;;;;;;;;42.00;25.50;;;;;13.71;86.81;102185.03;5041734;28;45320;-86
2021/12/20 02:26:02;;;;;;;;;43.00;29.50;;;;;13.64;86.49;102194.28;5040982;28;46283;-86
2021/12/20 02:28:36;;;;;;;;;39.00;22.50;;;;;13.66;86.61;102183.56;5039933;28;45443;-86
2021/12/20 02:39:38;;;;;;;;;43.50;32.50;;;;;13.84;86.37;102172.72;5041293;28;45564;-86
2021/12/20 02:42:14;;;;;;;;;;;;;;;;;;;;;
2021/12/20 02:45:09;;;;;;;;;49.00;31.25;;;;;13.91;86.43;102172.41;5040338;28;72995;-86
2021/12/20 02:47:41;;;;;;;;;48.25;32.50;;;;;13.93;86.41;102175.81;5023019;28;48429;-85
2021/12/20 02:50:07;;;;;;;;;42.25;29.50;;;;;13.88;86.30;102170.75;5042286;28;45241;-85
2021/12/20 02:52:32;;;;;;;;;35.50;31.50;;;;;13.94;86.22;102173.03;5043276;28;45429;-86
2021/12/20 02:55:00;;;;;;;;;25.00;21.50;;;;;14.00;86.40;102179.81;5043174;28;45630;-85
2021/12/20 02:57:26;;;;;;;;;41.75;30.50;;;;;13.91;86.36;102175.06;5019962;28;45982;-86
2021/12/20 02:59:51;;;;;;;;;37.75;29.00;;;;;13.92;86.25;102177.63;5037729;28;45364;-86
2021/12/20 03:02:18;;;;;;;;;45.75;33.50;;;;;13.98;85.96;102173.75;5041095;28;45478;-86
2021/12/20 03:04:44;;;;;;;;;38.25;26.75;;;;;13.90;85.77;102157.41;5042840;28;45531;-85
2021/12/20 03:07:16;;;;;;;;;34.75;28.75;;;;;13.97;86.10;102164.91;5025575;28;46098;-85
2021/12/20 03:09:48;;;;;;;;;47.50;33.50;;;;;13.90;86.23;102166.22;5043063;28;45801;-85
2021/12/20 03:12:16;;;;;;;;;49.25;34.00;;;;;13.88;86.10;102162.81;5024080;28;45442;-85
2021/12/20 03:14:47;;;;;;;;;43.00;36.00;;;;;13.92;86.11;102147.56;5040639;28;45244;-85
2021/12/20 03:17:13;;;;;;;;;34.75;31.75;;;;;13.82;86.56;102155.19;5040970;28;46335;-86
2021/12/20 03:19:39;;;;;;;;;45.75;30.75;;;;;13.89;86.79;102150.38;5042270;28;45454;-86
2021/12/20 03:22:06;;;;;;;;;43.75;34.25;;;;;13.95;86.46;102150.00;5040802;28;45329;-86
2021/12/20 03:24:32;;;;;;;;;36.00;29.75;;;;;13.90;86.31;102139.66;5039574;28;45508;-86
2021/12/20 03:26:58;;;;;;;;;42.50;30.75;;;;;13.98;85.92;102142.72;5038799;28;46263;-86
2021/12/20 03:29:24;;;;;;;;;41.00;29.50;;;;;14.01;86.14;102147.00;5040320;28;45244;-86
2021/12/20 03:31:52;;;;;;;;;42.50;28.25;;;;;13.98;85.97;102144.53;5040418;28;45230;-86
2021/12/20 03:34:19;;;;;;;;;40.00;29.50;;;;;13.89;86.21;102148.59;5022456;28;45583;-86
2021/12/20 03:36:47;;;;;;;;;48.75;32.00;;;;;13.76;86.42;102145.78;5040106;28;45527;-86
2021/12/20 03:39:13;;;;;;;;;54.50;35.50;;;;;13.88;85.97;102133.59;5039826;28;45430;-86
2021/12/20 03:41:38;;;;;;;;;48.50;32.75;;;;;13.88;86.48;102130.94;5039403;28;45742;-86
2021/12/20 03:44:08;;;;;;;;;39.50;27.75;;;;;13.98;86.12;102136.56;5038681;28;45246;-86
2021/12/20 03:46:39;;;;;;;;;46.75;30.25;;;;;13.89;86.22;102130.00;5039839;28;46235;-86
2021/12/20 03:49:06;;;;;;;;;43.00;28.50;;;;;13.92;86.29;102127.16;5040089;28;45308;-86
2021/12/20 03:51:32;;;;;;;;;43.50;32.50;;;;;13.92;86.09;102127.16;5040117;28;45280;-86
2021/12/20 03:53:58;;;;;;;;;28.50;21.50;;;;;13.92;86.04;102126.31;5040261;28;45426;-85
2021/12/20 03:56:23;;;;;;;;;39.25;24.75;;;;;14.02;85.51;102138.91;5039600;28;45562;-86
2021/12/20 03:58:49;;;;;;;;;37.75;27.50;;;;;14.00;85.43;102124.91;5040033;28;45291;-86
2021/12/20 04:01:14;;;;;;;;;37.25;29.00;;;;;14.00;85.32;102126.69;5039950;28;45431;-86
2021/12/20 04:03:41;;;;;;;;;38.00;31.00;;;;;14.03;85.38;102139.78;5033823;28;46001;-86
2021/12/20 04:06:10;;;;;;;;;44.25;30.25;;;;;14.03;85.45;102131.81;5040289;28;45581;-85
2021/12/20 04:08:36;;;;;;;;;40.50;28.25;;;;;14.02;84.72;102136.25;5024320;28;45236;-86
2021/12/20 04:11:04;;;;;;;;;39.50;28.75;;;;;13.98;85.09;102126.78;5042493;28;45326;-85
2021/12/20 04:13:31;;;;;;;;;31.75;28.00;;;;;13.99;85.06;102133.81;5040097;28;45387;-85
2021/12/20 04:16:03;;;;;;;;;40.00;29.00;;;;;14.05;84.76;102138.75;5042019;28;45394;-86
2021/12/20 04:18:32;;;;;;;;;35.50;26.00;;;;;13.86;84.85;102132.81;5023896;28;45427;-84
2021/12/20 04:20:58;;;;;;;;;41.50;29.25;;;;;13.86;84.87;102146.09;5024327;28;45247;-85
2021/12/20 04:23:23;;;;;;;;;44.25;31.75;;;;;13.82;84.90;102147.25;5041318;28;45289;-86
2021/12/20 04:25:51;;;;;;;;;36.75;30.00;;;;;13.83;85.20;102140.97;5041513;28;46219;-85
2021/12/20 04:28:17;;;;;;;;;41.25;29.50;;;;;13.78;85.04;102135.94;5043203;28;45378;-85
2021/12/20 04:30:45;;;;;;;;;35.75;28.75;;;;;13.74;85.45;102141.53;5043317;28;45785;-86
2021/12/20 04:33:10;;;;;;;;;36.75;28.50;;;;;13.69;85.41;102147.09;5043126;28;45451;-86
2021/12/20 04:35:36;;;;;;;;;39.00;28.75;;;;;13.74;85.50;102133.56;5043095;28;45715;-86
2021/12/20 04:38:02;;;;;;;;;38.50;35.50;;;;;13.80;85.53;102141.16;5043064;28;45396;-85
2021/12/20 04:40:28;;;;;;;;;47.75;33.00;;;;;13.70;85.46;102142.63;5042621;28;45280;-86
2021/12/20 04:42:58;;;;;;;;;42.50;30.75;;;;;13.72;85.86;102138.09;5042934;28;45607;-86
2021/12/20 04:45:27;;;;;;;;;45.00;33.25;;;;;13.84;85.62;102142.66;5042777;28;45518;-86
2021/12/20 04:47:53;;;;;;;;;42.75;32.75;;;;;13.85;85.51;102145.22;5024522;28;45286;-86
2021/12/20 04:50:21;;;;;;;;;37.00;32.00;;;;;13.72;85.67;102132.78;5042796;28;45229;-86
2021/12/20 04:52:47;;;;;;;;;33.75;28.75;;;;;13.74;86.11;102129.09;5043083;28;45368;-86
2021/12/20 04:55:21;;;;;;;;;44.75;35.50;;;;;13.77;85.90;102128.91;5042257;28;45608;-86
2021/12/20 04:57:51;;;;;;;;;43.50;33.00;;;;;13.87;85.83;102142.50;5035190;28;45226;-86
2021/12/20 05:00:20;;;;;;;;;34.25;28.25;;;;;13.94;85.76;102133.22;5042674;28;45430;-86
2021/12/20 05:02:46;;;;;;;;;45.00;30.75;;;;;13.88;85.91;102128.28;5042083;28;45158;-86
2021/12/20 05:05:12;;;;;;;;;42.25;29.75;;;;;13.93;85.73;102136.81;5042467;28;45584;-86
2021/12/20 05:07:39;;;;;;;;;38.00;29.50;;;;;13.95;85.67;102128.75;5042369;28;45734;-87
2021/12/20 05:10:15;;;;;;;;;41.00;27.75;;;;;13.89;85.53;102132.66;5025827;28;45380;-85
2021/12/20 05:12:40;;;;;;;;;33.75;26.25;;;;;13.86;85.44;102146.94;5023412;28;45873;-84
2021/12/20 05:15:06;;;;;;;;;46.50;27.75;;;;;14.02;85.56;102136.25;5015402;28;46301;-84
2021/12/20 05:17:39;;;;;;;;;42.00;27.75;;;;;14.04;85.22;102142.34;5044357;28;45395;-85
2021/12/20 05:20:07;;;;;;;;;33.00;27.25;;;;;14.00;85.43;102138.19;5027093;28;45509;-85
2021/12/20 05:22:33;;;;;;;;;42.50;26.25;;;;;14.12;84.96;102149.84;5045227;28;45257;-84
2021/12/20 05:24:58;;;;;;;;;44.50;31.00;;;;;14.01;85.25;102144.34;5027034;28;47076;-84
2021/12/20 05:27:24;;;;;;;;;43.00;24.50;;;;;14.02;85.36;102152.19;5042984;28;45274;-86
2021/12/20 05:29:54;;;;;;;;;43.75;26.25;;;;;13.90;84.53;102142.31;5024517;28;45381;-86
2021/12/20 05:32:19;;;;;;;;;43.75;28.50;;;;;13.84;84.99;102143.53;5024232;28;45376;-86
2021/12/20 05:34:47;;;;;;;;;38.00;27.75;;;;;13.95;84.93;102142.91;5042051;28;46099;-86
2021/12/20 05:37:15;;;;;;;;;32.25;24.75;;;;;13.92;85.37;102140.44;5023314;28;45673;-86
2021/12/20 05:39:46;;;;;;;;;40.75;32.50;;;;;14.00;85.31;102137.31;5024192;28;45273;-86
2021/12/20 05:42:12;;;;;;;;;36.00;23.00;;;;;13.92;85.31;102121.00;5023834;28;45441;-86
2021/12/20 05:44:40;;;;;;;;;28.75;23.00;;;;;13.88;85.34;102132.72;5037418;28;47049;-85
2021/12/20 05:47:08;;;;;;;;;34.50;23.00;;;;;13.80;84.87;102138.50;5040596;28;45312;-86
2021/12/20 05:49:35;;;;;;;;;33.00;25.00;;;;;13.81;84.69;102143.72;5023754;28;45471;-86
2021/12/20 05:52:05;;;;;;;;;28.25;22.75;;;;;13.72;84.83;102140.75;5041810;28;45473;-86
2021/12/20 05:54:31;;;;;;;;;33.75;22.25;;;;;13.64;85.05;102143.84;5041697;28;45538;-86
2021/12/20 05:56:57;;;;;;;;;26.50;25.00;;;;;13.57;84.96;102128.34;5035641;28;45186;-86
2021/12/20 05:59:25;;;;;;;;;32.00;21.75;;;;;13.55;84.63;102146.19;5034463;28;45438;-86
2021/12/20 06:01:51;;;;;;;;;28.00;19.25;;;;;13.39;84.51;102132.91;5041028;28;45448;-86
2021/12/20 06:04:18;;;;;;;;;30.25;25.00;;;;;13.31;84.89;102135.16;5040741;28;45331;-85
2021/12/20 06:06:44;;;;;;;;;24.25;18.00;;;;;13.39;85.01;102136.44;5023570;28;45358;-84
2021/12/20 06:09:09;;;;;;;;;31.50;23.75;;;;;13.41;84.68;102149.63;5040644;28;45775;-85
2021/12/20 06:11:35;;;;;;;;;28.00;20.00;;;;;13.47;84.93;102146.63;5041607;28;45422;-85
2021/12/20 06:14:00;;;;;;;;;27.75;23.00;;;;;13.56;84.86;102145.25;5041539;28;46084;-84
2021/12/20 06:16:26;;;;;;;;;32.00;25.25;;;;;13.59;85.24;102145.91;5043756;28;45343;-84
2021/12/20 06:18:53;;;;;;;;;30.50;17.75;;;;;13.63;85.08;102133.31;5026051;28;45463;-85
2021/12/20 06:21:23;;;;;;;;;25.50;20.50;;;;;13.64;84.73;102137.69;5043790;28;45471;-85
2021/12/20 06:23:49;;;;;;;;;36.25;19.50;;;;;13.58;84.65;102140.69;5025763;28;47429;-85
2021/12/20 06:26:14;;;;;;;;;26.75;21.00;;;;;13.46;84.75;102145.78;5012983;28;45296;-85
2021/12/20 06:28:50;;;;;;;;;;;;;;;;;;;;;
2021/12/20 06:31:18;;;;;;;;;25.50;19.25;;;;;13.24;84.89;102147.06;5040373;28;72988;-85
2021/12/20 06:33:47;;;;;;;;;27.00;20.50;;;;;13.24;85.17;102137.31;5040965;28;45544;-86
2021/12/20 06:36:18;;;;;;;;;22.75;16.25;;;;;13.26;85.70;102142.53;5041540;28;45252;-86
2021/12/20 06:38:45;;;;;;;;;33.75;21.75;;;;;13.24;85.06;102147.91;5023412;28;45356;-86
2021/12/20 06:41:11;;;;;;;;;20.25;14.25;;;;;13.17;85.28;102162.47;5040965;28;45580;-85
2021/12/20 06:43:42;;;;;;;;;21.75;12.00;;;;;13.25;85.06;102164.69;5041119;28;45981;-86
2021/12/20 06:46:08;;;;;;;;;26.50;18.25;;;;;13.23;85.77;102156.81;5023443;28;45885;-85
2021/12/20 06:48:33;;;;;;;;;25.25;22.50;;;;;13.33;84.44;102165.97;5039778;28;45452;-86
2021/12/20 06:50:59;;;;;;;;;28.75;19.00;;;;;13.20;84.75;102172.91;5041260;28;45418;-85
2021/12/20 06:53:24;;;;;;;;;35.25;17.50;;;;;13.12;84.74;102162.69;5041050;28;46549;-86
2021/12/20 06:55:57;;;;;;;;;30.00;20.25;;;;;13.10;84.99;102163.72;5038026;28;45672;-86
2021/12/20 06:58:23;;;;;;;;;27.50;18.00;;;;;13.24;85.03;102170.94;5041081;28;45522;-86
2021/12/20 07:00:52;;;;;;;;;29.00;22.25;;;;;13.35;84.74;102174.72;5041008;28;45521;-86
2021/12/20 07:03:18;;;;;;;;;28.25;20.50;;;;;13.28;84.29;102176.00;5040784;28;45391;-86
2021/12/20 07:05:44;;;;;;;;;27.00;19.75;;;;;13.16;84.59;102174.03;5039846;28;45279;-85
2021/12/20 07:08:18;;;;;;;;;26.00;21.00;;;;;13.12;84.90;102177.75;5023535;28;45250;-86
2021/12/20 07:10:43;;;;;;;;;21.00;15.75;;;;;13.02;84.66;102179.19;5039685;28;45337;-84
2021/12/20 07:13:10;;;;;;;;;35.00;16.25;;;;;13.14;84.61;102181.19;5037559;28;47995;-83
2021/12/20 07:15:36;;;;;;;;;23.00;14.50;;;;;13.24;84.28;102179.75;5015498;28;45237;-83
2021/12/20 07:18:04;;;;;;;;;25.00;15.75;;;;;13.20;84.01;102182.69;5043150;28;45256;-86
2021/12/20 07:20:30;;;;;;;;;31.25;20.00;;;;;13.11;84.56;102187.50;5043585;28;45478;-84
2021/12/20 07:23:06;;;;;;;;;26.25;18.50;;;;;13.05;84.48;102169.28;5043249;28;47103;-84
2021/12/20 07:25:34;;;;;;;;;26.75;21.75;;;;;13.07;84.57;102172.72;5028972;28;45636;-85
2021/12/20 07:28:00;;;;;;;;;21.25;19.75;;;;;13.05;84.66;102179.88;5044854;28;45173;-85
2021/12/20 07:30:25;;;;;;;;;27.25;17.50;;;;;13.19;84.68;102179.16;5043439;28;44679;-85
2021/12/20 07:32:51;;;;;;;;;29.00;22.00;;;;;13.29;84.71;102182.16;5043627;28;46172;-85
2021/12/20 07:35:21;;;;;;;;;21.50;16.50;;;;;13.27;84.58;102173.44;5040276;28;45336;-85
2021/12/20 07:37:52;;;;;;;;;23.50;14.00;;;;;13.33;84.45;102178.38;5042055;28;45433;-86
2021/12/20 07:40:23;;;;;;;;;26.25;16.25;;;;;13.33;84.87;102170.41;5040945;28;45401;-83
2021/12/20 07:42:51;;;;;;;;;17.75;15.00;;;;;13.30;84.54;102167.94;5037573;28;47274;-85
2021/12/20 07:45:17;;;;;;;;;26.50;15.50;;;;;13.37;84.44;102186.09;5042604;28;45228;-86
2021/12/20 07:47:43;;;;;;;;;25.75;18.25;;;;;13.33;84.25;102187.19;5039941;28;45520;-86
2021/12/20 07:50:08;;;;;;;;;31.00;21.00;;;;;13.31;84.14;102183.78;5022057;28;45389;-86
2021/12/20 07:52:34;;;;;;;;;18.75;13.25;;;;;13.26;84.23;102184.97;5035642;28;48269;-86
2021/12/20 07:55:00;;;;;;;;;20.50;17.00;;;;;13.24;84.20;102185.06;5037342;28;45676;-86
2021/12/20 07:57:29;;;;;;;;;29.25;18.75;;;;;13.30;84.22;102183.84;5039579;28;45439;-86
2021/12/20 07:59:55;;;;;;;;;30.25;20.75;;;;;13.30;84.12;102184.72;5038588;28;45315;-86
2021/12/20 08:02:22;;;;;;;;;30.25;20.75;;;;;13.31;84.16;102181.13;5021474;28;47148;-85
2021/12/20 08:04:51;;;;;;;;;26.50;21.75;;;;;13.31;84.05;102173.16;5024291;28;45447;-86
2021/12/20 08:07:18;;;;;;;;;22.25;17.00;;;;;13.26;83.95;102180.53;5022561;28;45418;-85
2021/12/20 08:09:44;;;;;;;;;33.00;22.50;;;;;13.31;83.98;102181.13;5022203;28;45240;-86
2021/12/20 08:12:12;;;;;;;;;32.50;21.75;;;;;13.31;84.36;102181.13;5022792;28;48289;-87
2021/12/20 08:14:38;;;;;;;;;30.00;21.25;;;;;13.37;83.77;102185.25;5021784;28;45487;-86
2021/12/20 08:17:03;;;;;;;;;29.00;22.00;;;;;13.27;84.09;102184.03;5039997;28;45365;-85
2021/12/20 08:19:29;;;;;;;;;27.75;19.00;;;;;13.26;83.89;102184.97;5022802;28;45449;-86
2021/12/20 08:21:54;;;;;;;;;26.50;20.00;;;;;13.27;83.16;102184.91;5021967;28;47036;-86
2021/12/20 08:24:24;;;;;;;;;28.00;20.25;;;;;13.21;84.11;102189.66;5025623;28;45394;-85
2021/12/20 08:26:50;;;;;;;;;24.50;21.00;;;;;13.17;84.32;102194.31;5024684;28;45296;-86
2021/12/20 08:29:15;;;;;;;;;31.25;24.50;;;;;13.28;83.88;102191.06;5042556;28;45504;-87
2021/12/20 08:31:40;;;;;;;;;34.00;23.50;;;;;13.34;83.81;102188.91;5040758;28;45399;-86
2021/12/20 08:34:06;;;;;;;;;27.75;22.25;;;;;13.35;83.57;102201.25;5040557;28;45158;-86
2021/12/20 08:36:34;;;;;;;;;31.25;25.00;;;;;13.38;83.46;102209.00;5041914;28;45229;-86
2021/12/20 08:39:00;;;;;;;;;34.75;27.50;;;;;13.32;83.23;102208.50;5042816;28;45359;-85
2021/12/20 08:41:25;;;;;;;;;32.50;19.75;;;;;13.31;83.30;102205.00;5040306;28;46191;-86
2021/12/20 08:43:51;;;;;;;;;30.50;20.25;;;;;13.29;83.21;102204.22;5039663;28;45410;-85
2021/12/20 08:46:18;;;;;;;;;42.25;25.00;;;;;13.38;83.27;102211.66;5041692;28;45298;-86
2021/12/20 08:48:44;;;;;;;;;24.00;20.25;;;;;13.46;83.05;102216.56;5039735;28;45220;-85
2021/12/20 08:51:12;;;;;;;;;36.50;25.00;;;;;13.36;82.57;102218.88;5043914;28;45345;-86
2021/12/20 08:53:40;;;;;;;;;35.50;22.50;;;;;13.35;82.72;102217.16;5044813;28;45513;-85
2021/12/20 08:56:13;;;;;;;;;30.25;17.00;;;;;13.24;82.83;102216.91;5040086;28;45416;-85
2021/12/20 08:58:38;;;;;;;;;30.50;24.75;;;;;13.29;82.55;102220.13;5030826;28;45404;-85
2021/12/20 09:01:07;;;;;;;;;33.25;21.25;;;;;13.29;82.33;102217.47;5046860;28;45482;-86
2021/12/20 09:03:37;;;;;;;;;30.75;20.25;;;;;13.26;81.89;102222.97;5027573;28;45432;-85
2021/12/20 09:06:05;;;;;;;;;32.75;21.00;;;;;13.27;82.32;102224.69;5040616;28;44871;-86
2021/12/20 09:08:31;;;;;;;;;39.50;27.75;;;;;13.28;82.28;102238.81;5044781;28;44761;-84
2021/12/20 09:10:57;;;;;;;;;33.25;25.25;;;;;13.29;82.54;102225.44;5039682;28;46506;-86
2021/12/20 09:13:25;;;;;;;;;26.50;22.00;;;;;13.35;82.73;102230.44;5021994;28;45697;-85
2021/12/20 09:15:52;;;;;;;;;30.75;22.75;;;;;13.32;82.69;102227.94;5042574;28;45395;-85
2021/12/20 09:18:18;;;;;;;;;32.25;21.75;;;;;13.46;82.69;102227.19;5042540;28;45454;-86
2021/12/20 09:20:43;;;;;;;;;38.00;25.00;;;;;13.33;82.75;102212.88;5024556;28;47148;-86
2021/12/20 09:23:13;;;;;;;;;28.75;21.25;;;;;13.35;82.25;102229.56;5042635;28;45363;-86
2021/12/20 09:25:44;;;;;;;;;29.25;21.75;;;;;13.34;82.18;102220.75;5024312;28;45327;-85
2021/12/20 09:28:11;;;;;;;;;38.00;23.25;;;;;13.30;82.48;102221.84;5042291;28;45367;-86
2021/12/20 09:30:38;;;;;;;;;25.25;17.00;;;;;13.16;81.13;102215.59;5025467;28;46953;-85
2021/12/20 09:33:06;;;;;;;;;31.50;25.50;;;;;13.25;81.97;102215.97;5042431;28;45265;-85
2021/12/20 09:35:33;;;;;;;;;35.25;24.75;;;;;13.27;81.66;102219.38;5043924;28;45263;-85
2021/12/20 09:38:00;;;;;;;;;29.00;25.00;;;;;13.30;81.82;102231.59;5045411;28;45479;-83
2021/12/20 09:40:33;;;;;;;;;30.50;22.50;;;;;13.18;82.06;102232.31;5052454;28;45447;-85
2021/12/20 09:43:05;;;;;;;;;34.00;24.75;;;;;13.25;82.18;102225.72;5044401;28;45426;-85
2021/12/20 09:45:33;;;;;;;;;31.00;25.25;;;;;13.38;81.78;102232.88;5025535;28;45361;-85
2021/12/20 09:47:59;;;;;;;;;32.50;27.25;;;;;13.40;81.91;102233.66;5042626;28;45351;-85
2021/12/20 09:50:28;;;;;;;;;35.75;22.75;;;;;13.44;81.77;102221.94;5043026;28;45516;-85
2021/12/20 09:52:54;;;;;;;;;37.00;24.00;;;;;13.40;81.52;102228.34;5043380;28;45792;-86
2021/12/20 09:55:22;;;;;;;;;36.75;26.25;;;;;13.38;82.08;102216.97;5041591;28;45339;-86
2021/12/20 09:57:59;;;;;;;;;33.25;26.25;;;;;13.47;82.38;102235.03;5041838;28;45508;-85
2021/12/20 10:00:27;;;;;;;;;28.25;23.00;;;;;13.47;81.03;102236.84;5043549;28;46372;-85
2021/12/20 10:02:53;;;;;;;;;37.00;22.50;;;;;13.46;81.49;102236.00;5027020;28;45723;-86
2021/12/20 10:05:21;;;;;;;;;30.00;26.50;;;;;13.42;81.15;102226.47;5025225;28;45302;-86
2021/12/20 10:07:51;;;;;;;;;35.00;27.00;;;;;13.48;81.63;102235.88;5042192;28;45219;-86
2021/12/20 10:10:41;;;;;;;;;35.75;26.50;;;;;13.51;81.26;102241.03;5042018;28;45684;-85
2021/12/20 10:13:08;;;;;;;;;33.75;25.50;;;;;13.46;81.17;102230.69;5039426;28;45225;-85
2021/12/20 10:15:39;;;;;;;;;32.25;23.75;;;;;13.54;81.07;102232.91;5041932;28;45332;-85
2021/12/20 10:18:14;;;;;;;;;29.50;26.00;;;;;13.52;81.42;102229.47;5024072;28;45346;-84
2021/12/20 10:20:47;;;;;;;;;33.00;22.00;;;;;13.57;81.24;102234.50;5024024;28;47632;-85
2021/12/20 10:23:19;;;;;;;;;28.50;20.75;;;;;13.64;81.34;102233.25;5041851;28;45333;-85
2021/12/20 10:25:50;;;;;;;;;26.25;23.50;;;;;13.56;80.90;102230.19;5041396;28;45335;-84
2021/12/20 10:28:21;;;;;;;;;31.00;21.75;;;;;13.60;80.79;102235.22;5023876;28;45458;-84
2021/12/20 10:31:11;;;;;;;;;29.25;22.75;;;;;13.55;80.77;102215.19;5041998;28;45569;-85
2021/12/20 10:33:40;;;;;;;;;38.50;27.00;;;;;13.64;80.94;102238.56;5023352;28;45851;-85
2021/12/20 10:36:10;;;;;;;;;30.25;22.00;;;;;13.43;80.39;102225.53;5041800;28;45568;-85
2021/12/20 10:38:41;;;;;;;;;30.25;22.00;;;;;13.43;80.18;102230.00;5041679;28;45242;-85
2021/12/20 10:41:12;;;;;;;;;30.25;23.00;;;;;13.52;80.49;102231.28;5041816;28;45586;-84
2021/12/20 10:43:45;;;;;;;;;26.00;20.75;;;;;13.52;80.38;102225.97;5042162;28;45730;-85
2021/12/20 10:46:32;;;;;;;;;29.25;21.25;;;;;13.49;80.14;102211.06;5021402;28;45427;-85
2021/12/20 10:49:05;;;;;;;;;26.75;21.25;;;;;13.50;80.59;102220.75;5023350;28;45456;-85
2021/12/20 10:51:38;;;;;;;;;27.00;18.50;;;;;13.49;80.85;102217.22;5035841;28;45508;-85
2021/12/20 10:54:16;;;;;;;;;27.50;22.00;;;;;13.59;80.65;102220.22;5041554;28;45323;-85
2021/12/20 10:56:51;;;;;;;;;29.75;23.00;;;;;13.67;80.64;102214.47;5033192;28;45232;-86
2021/12/20 10:59:20;;;;;;;;;26.50;21.75;;;;;13.64;80.71;102218.19;5040919;28;45474;-86
2021/12/20 11:04:21;;;;;;;;;22.75;19.00;;;;;13.61;80.22;102225.44;5040456;28;45545;-85
2021/12/20 11:09:47;;;;;;;;;;;;;;;;;;;;;
2021/12/20 11:12:23;;;;;;;;;17.75;15.75;;;;;13.37;79.63;102207.31;5039440;28;75526;-85
2021/12/20 11:14:52;;;;;;;;;22.00;18.25;;;;;13.26;80.11;102207.06;5009634;28;45724;-85
2021/12/20 11:17:20;;;;;;;;;12.50;10.50;;;;;13.27;79.72;102206.13;5040738;28;45446;-84
2021/12/20 11:19:48;;;;;;;;;18.25;16.25;;;;;13.21;80.16;102195.84;5022075;28;45497;-86
2021/12/20 11:22:36;;;;;;;;;18.50;12.75;;;;;13.19;79.27;102200.38;5040364;28;45394;-84
2021/12/20 11:25:15;;;;;;;;;16.50;11.00;;;;;13.30;79.26;102203.28;5022236;28;45456;-85
2021/12/20 11:27:53;;;;;;;;;20.25;11.50;;;;;13.43;78.46;102200.81;5022764;28;45327;-86
2021/12/20 11:30:31;;;;;;;;;;;;;;;;;;;;;
2021/12/20 11:33:00;;;;;;;;;20.75;14.00;;;;;13.46;79.00;102193.53;5039243;28;75676;-85
2021/12/20 11:35:28;;;;;;;;;19.00;16.50;;;;;13.43;79.05;102176.94;5039601;28;45456;-85
2021/12/20 11:37:56;;;;;;;;;22.25;13.00;;;;;13.45;78.82;102175.91;5040686;28;45316;-86
2021/12/20 11:40:24;;;;;;;;;19.50;12.50;;;;;13.56;78.43;102185.91;5040527;28;45504;-85
2021/12/20 11:42:52;;;;;;;;;18.75;12.25;;;;;13.48;78.79;102178.38;5041544;28;46424;-85
2021/12/20 11:45:21;;;;;;;;;21.75;16.00;;;;;13.48;78.29;102170.41;5040188;28;45279;-86